Date,TemperatureHighF,TemperatureAvgF,TemperatureLowF,DewpointHighF,DewpointAvgF,DewpointLowF,HumidityHigh,HumidityAvg,HumidityLow,PressureMaxIn,PressureMinIn,WindSpeedMaxMPH,WindSpeedAvgMPH,GustSpeedMaxMPH,PrecipitationSumIn
2013-7-1,81.6,67.6,55.1,62.3,57.2,52.8,94,71,45,29.87,29.79,14,1,14,0.00
2013-7-2,83.6,65.8,56.7,62.2,57.7,54.9,96,77,45,29.94,29.83,13,2,16,0.00
2013-7-3,83.0,66.3,56.3,62.9,58.2,55.5,97,78,47,29.92,29.76,11,1,12,0.00
2013-7-4,80.7,65.4,57.5,61.1,57.7,54.4,96,78,50,29.77,29.73,12,2,12,0.00
2013-7-5,66.8,59.5,54.2,55.8,53.8,51.8,93,82,67,29.81,29.75,17,1,17,0.00
2013-7-6,67.9,58.9,55.0,55.8,52.9,51.8,92,81,62,29.81,29.76,10,2,15,0.00
2013-7-7,71.8,60.3,54.4,56.2,53.6,52.0,94,80,56,29.86,29.78,15,2,15,0.00
2013-7-8,73.5,61.7,55.1,57.0,54.2,52.0,93,78,54,29.96,29.85,13,1,13,0.00
2013-7-9,81.8,63.6,52.9,60.7,55.8,51.8,97,78,48,29.99,29.94,8,1,11,0.00
2013-7-10,72.3,60.4,53.5,58.8,54.9,52.0,97,83,58,29.98,29.91,13,1,13,0.00
2013-7-11,68.6,58.3,53.6,55.4,53.1,51.9,94,84,62,29.94,29.91,13,1,15,0.00
2013-7-12,73.0,60.2,54.8,57.2,53.3,51.3,92,79,56,29.93,29.88,13,1,13,0.00
2013-7-13,76.0,60.2,52.3,57.2,53.5,50.6,96,80,49,29.95,29.89,9,1,11,0.00
2013-7-14,72.3,59.3,52.8,57.4,53.5,50.5,95,82,57,29.98,29.91,14,1,14,0.00
2013-7-15,67.3,57.9,53.5,55.2,53.2,51.6,96,85,62,29.92,29.85,15,2,15,0.01
2013-7-16,72.0,60.5,55.4,56.9,55.1,52.5,97,83,57,30.00,29.86,10,1,12,0.04
2013-7-17,74.6,63.8,55.9,59.2,55.8,53.1,91,76,55,30.05,30.00,13,1,13,0.00
2013-7-18,73.9,59.6,53.5,59.5,54.5,51.5,96,84,59,30.05,29.94,14,1,14,0.00
2013-7-19,72.5,58.3,53.6,57.2,53.7,51.9,97,86,57,29.95,29.84,16,1,16,0.00
2013-7-20,66.4,57.1,53.3,56.2,53.3,51.9,96,88,67,29.86,29.78,10,1,15,0.00
2013-7-21,73.3,59.8,53.5,57.7,54.2,52.0,97,83,57,29.88,29.76,13,1,13,0.00
2013-7-22,74.0,62.8,55.9,60.8,57.2,54.0,96,83,63,29.94,29.85,12,1,12,0.00
2013-7-23,77.4,65.2,57.5,61.9,57.7,55.7,96,78,56,29.98,29.93,9,1,12,0.00
2013-7-24,77.6,62.7,54.5,61.0,56.9,54.0,98,83,53,29.95,29.90,9,1,1,0.00
2013-7-25,72.8,60.7,53.2,58.0,55.4,52.0,97,84,59,30.02,29.92,12,1,0,0.00
2013-7-26,72.0,60.3,54.8,58.0,55.6,54.0,96,86,60,30.08,30.00,10,1,0,0.00
2013-7-27,72.1,59.7,54.8,58.0,55.5,54.0,98,87,61,30.02,29.87,9,2,0,0.00
2013-7-28,64.3,57.9,54.8,56.0,54.6,53.0,98,89,75,29.88,29.83,9,2,0,0.01
2013-7-29,67.1,59.7,56.3,57.0,54.5,53.0,91,82,69,30.00,29.86,10,2,0,0.00
2013-7-30,72.1,61.5,57.3,57.0,54.3,53.0,86,78,59,30.08,30.00,11,2,0,0.00
2013-7-31,69.6,59.4,55.9,56.0,53.5,52.0,89,81,62,30.08,30.02,8,1,7,0.00